Time;durP1;ratioP1;P1;durP2;ratioP2;P2;SDS_P1;SDS_P2;PMS_P1;PMS_P2;Temp;Humidity;BMP_temperature;BMP_pressure;BME280_temperature;BME280_humidity;BME280_pressure;Samples;Min_cycle;Max_cycle;Signal;HPM_P1;HPM_P2
2022/06/29 00:00:20;;;;;;;7.05;2.00;;;19.80;99.90;;;;;;7341569;19;111232;-84
2022/06/29 00:02:48;;;;;;;4.85;1.80;;;19.70;99.90;;;;;;7343901;19;108538;-85
2022/06/29 00:05:23;;;;;;;8.52;1.90;;;19.80;99.90;;;;;;7351650;19;108703;-84
2022/06/29 00:07:53;;;;;;;4.40;1.65;;;19.70;99.90;;;;;;7344041;19;108139;-85
2022/06/29 00:10:22;;;;;;;6.40;1.60;;;19.50;99.90;;;;;;7343308;19;108606;-85
2022/06/29 00:12:49;;;;;;;4.53;1.52;;;19.40;99.90;;;;;;7345901;19;107407;-85
2022/06/29 00:15:18;;;;;;;3.25;1.60;;;19.40;99.90;;;;;;7346441;19;107843;-85
2022/06/29 00:17:45;;;;;;;3.13;1.60;;;19.40;99.90;;;;;;7344842;19;108705;-85
2022/06/29 00:20:12;;;;;;;6.43;1.58;;;19.40;99.90;;;;;;7345192;19;108404;-85
2022/06/29 00:22:41;;;;;;;4.05;1.70;;;19.40;99.90;;;;;;7343070;19;108993;-84
2022/06/29 00:25:10;;;;;;;2.63;1.70;;;19.40;99.90;;;;;;7343130;19;111924;-85
2022/06/29 00:27:38;;;;;;;9.23;2.00;;;19.40;99.90;;;;;;7351611;19;107835;-85
2022/06/29 00:30:06;;;;;;;3.00;1.80;;;19.30;99.90;;;;;;7345315;19;109676;-85
2022/06/29 00:32:33;;;;;;;3.30;1.70;;;19.30;99.90;;;;;;7344609;19;108269;-85
2022/06/29 00:35:00;;;;;;;4.07;1.73;;;19.30;99.90;;;;;;7345847;19;108273;-85
2022/06/29 00:37:28;;;;;;;2.50;1.52;;;19.30;99.90;;;;;;7342935;19;109141;-84
2022/06/29 00:39:55;;;;;;;7.53;1.77;;;19.30;99.90;;;;;;7342779;19;108161;-85
2022/06/29 00:42:23;;;;;;;3.35;1.80;;;19.20;99.90;;;;;;7342805;19;108510;-85
2022/06/29 00:44:50;;;;;;;6.53;2.08;;;19.20;99.90;;;;;;7343867;19;111963;-85
2022/06/29 00:47:18;;;;;;;5.45;2.10;;;19.10;99.90;;;;;;7344167;19;110258;-85
2022/06/29 00:49:45;;;;;;;4.68;1.92;;;19.00;99.90;;;;;;7345225;19;108572;-85
2022/06/29 00:52:16;;;;;;;6.55;1.92;;;19.00;99.90;;;;;;7342396;19;107800;-84
2022/06/29 00:54:44;;;;;;;2.65;1.80;;;19.00;99.90;;;;;;7340880;19;111648;-85
2022/06/29 00:57:15;;;;;;;3.35;2.08;;;18.90;99.90;;;;;;7343815;19;109129;-85
2022/06/29 00:59:48;;;;;;;3.10;1.80;;;19.00;99.90;;;;;;7345026;19;108066;-85
2022/06/29 01:02:18;;;;;;;4.28;2.03;;;18.90;99.90;;;;;;7342262;19;108958;-86
2022/06/29 01:04:46;;;;;;;5.95;2.10;;;19.00;99.90;;;;;;7343757;19;108256;-86
2022/06/29 01:07:15;;;;;;;6.70;2.00;;;19.00;99.90;;;;;;7341152;19;108307;-85
2022/06/29 01:09:43;;;;;;;4.22;1.70;;;18.90;99.90;;;;;;7348776;19;111365;-84
2022/06/29 01:12:11;;;;;;;3.75;1.95;;;18.90;99.90;;;;;;7340059;19;108081;-85
2022/06/29 01:14:42;;;;;;;3.10;2.17;;;18.90;99.90;;;;;;7342858;19;111181;-85
2022/06/29 01:17:11;;;;;;;6.25;2.38;;;18.80;99.90;;;;;;7342773;19;108639;-85
2022/06/29 01:19:39;;;;;;;4.30;2.42;;;18.80;99.90;;;;;;7341558;19;111256;-85
2022/06/29 01:22:14;;;;;;;4.50;2.17;;;18.80;99.90;;;;;;7342936;19;108630;-85
2022/06/29 01:24:44;;;;;;;2.97;2.15;;;18.70;99.90;;;;;;7337509;19;111406;-85
2022/06/29 01:27:13;;;;;;;3.50;2.22;;;18.70;99.90;;;;;;7342367;19;108030;-84
2022/06/29 01:29:41;;;;;;;4.43;2.30;;;18.70;99.90;;;;;;7339131;19;108503;-84
2022/06/29 01:32:08;;;;;;;4.30;2.42;;;18.60;99.90;;;;;;7347116;19;108434;-84
2022/06/29 01:34:37;;;;;;;3.80;2.40;;;18.60;99.90;;;;;;7341724;19;108182;-85
2022/06/29 01:37:05;;;;;;;4.25;2.10;;;18.60;99.90;;;;;;7342577;19;108684;-85
2022/06/29 01:39:34;;;;;;;2.78;1.70;;;18.50;99.90;;;;;;7341254;19;107937;-85
2022/06/29 01:42:01;;;;;;;6.05;2.30;;;18.50;99.90;;;;;;7344572;19;108241;-85
2022/06/29 01:44:28;;;;;;;4.70;2.65;;;18.50;99.90;;;;;;7340535;19;108990;-85
2022/06/29 01:46:55;;;;;;;5.78;2.20;;;18.50;99.90;;;;;;7342463;19;107351;-85
2022/06/29 01:49:23;;;;;;;4.97;2.08;;;18.40;99.90;;;;;;7341258;19;110884;-85
2022/06/29 01:51:50;;;;;;;4.10;2.20;;;18.40;99.90;;;;;;7339020;19;109187;-84
2022/06/29 01:54:17;;;;;;;4.45;2.15;;;18.40;99.90;;;;;;7346613;19;108005;-85
2022/06/29 01:56:44;;;;;;;6.45;2.60;;;18.40;99.90;;;;;;7339546;19;109656;-85
2022/06/29 01:59:11;;;;;;;4.93;2.53;;;18.30;99.90;;;;;;7342840;19;107820;-85
2022/06/29 02:01:39;;;;;;;6.22;2.45;;;18.30;99.90;;;;;;7340986;19;108403;-85
2022/06/29 02:04:07;;;;;;;5.57;2.13;;;18.10;99.90;;;;;;7338670;19;109152;-85
2022/06/29 02:06:34;;;;;;;3.67;2.47;;;18.10;99.90;;;;;;7340287;19;108095;-85
2022/06/29 02:09:01;;;;;;;3.35;2.35;;;18.10;99.90;;;;;;7341112;19;107918;-85
2022/06/29 02:11:28;;;;;;;7.45;2.33;;;18.10;99.90;;;;;;7342319;19;109282;-85
2022/06/29 02:13:56;;;;;;;6.55;2.30;;;18.10;99.90;;;;;;7341976;19;107955;-85
2022/06/29 02:16:23;;;;;;;6.97;2.45;;;18.10;99.90;;;;;;7344533;19;107609;-85
2022/06/29 02:18:50;;;;;;;6.00;2.60;;;18.10;99.90;;;;;;7340919;19;109261;-84
2022/06/29 02:21:17;;;;;;;4.10;3.00;;;18.00;99.90;;;;;;7341802;19;110113;-85
2022/06/29 02:23:45;;;;;;;4.50;2.88;;;18.00;99.90;;;;;;7336955;19;108174;-86
2022/06/29 02:26:12;;;;;;;9.25;2.80;;;18.00;99.90;;;;;;7340145;19;107903;-86
2022/06/29 02:28:39;;;;;;;4.97;3.15;;;18.00;99.90;;;;;;7336097;19;111478;-85
2022/06/29 02:36:41;;;;;;;6.45;3.13;;;17.70;99.90;;;;;;7339299;19;108572;-85
2022/06/29 02:39:08;;;;;;;5.07;3.17;;;17.70;99.90;;;;;;7342218;19;109212;-85
2022/06/29 02:41:36;;;;;;;4.63;3.20;;;17.70;99.90;;;;;;7338175;19;108560;-84
2022/06/29 02:44:04;;;;;;;5.78;3.22;;;17.70;99.90;;;;;;7338481;19;109309;-85
2022/06/29 02:46:31;;;;;;;6.82;3.47;;;17.60;99.90;;;;;;7340433;19;107936;-85
2022/06/29 02:48:58;;;;;;;7.25;3.75;;;17.50;99.90;;;;;;7336231;19;109594;-84
2022/06/29 02:51:26;;;;;;;8.80;3.90;;;17.40;99.90;;;;;;7340930;19;110144;-85
2022/06/29 02:53:53;;;;;;;7.85;4.28;;;17.30;99.90;;;;;;7340522;19;108750;-85
2022/06/29 02:56:20;;;;;;;6.68;4.35;;;17.20;99.90;;;;;;7339262;19;108513;-86
2022/06/29 02:58:47;;;;;;;8.80;4.50;;;17.10;99.90;;;;;;7339621;19;107822;-86
2022/06/29 03:01:14;;;;;;;6.75;4.47;;;17.10;99.90;;;;;;7342453;19;107824;-83
2022/06/29 03:03:41;;;;;;;9.25;4.20;;;17.10;99.90;;;;;;7333267;19;109305;-85
2022/06/29 03:06:09;;;;;;;8.02;4.20;;;17.10;99.90;;;;;;7336791;19;111840;-85
2022/06/29 03:08:36;;;;;;;10.30;4.63;;;17.20;99.90;;;;;;7340487;19;107847;-84
2022/06/29 03:11:03;;;;;;;8.88;4.07;;;17.20;99.90;;;;;;7340632;19;107878;-85
2022/06/29 03:13:30;;;;;;;10.18;4.70;;;17.20;99.90;;;;;;7340701;19;107915;-85
2022/06/29 03:15:57;;;;;;;10.35;4.30;;;17.30;99.90;;;;;;7338108;19;110927;-85
2022/06/29 03:18:24;;;;;;;12.43;4.22;;;17.30;99.90;;;;;;7339383;19;108520;-85
2022/06/29 03:20:52;;;;;;;9.50;4.47;;;17.30;99.90;;;;;;7345912;19;107613;-85
2022/06/29 03:23:19;;;;;;;7.50;4.50;;;17.30;99.90;;;;;;7338033;19;109107;-85
2022/06/29 03:25:47;;;;;;;8.30;4.20;;;17.30;99.90;;;;;;7338617;19;107934;-85
2022/06/29 03:28:14;;;;;;;7.22;4.15;;;17.30;99.90;;;;;;7337794;19;111683;-85
2022/06/29 03:30:41;;;;;;;5.97;3.92;;;17.30;99.90;;;;;;7339443;19;107866;-85
2022/06/29 03:33:08;;;;;;;7.43;3.95;;;17.20;99.90;;;;;;7336788;19;108777;-86
2022/06/29 03:35:35;;;;;;;8.55;4.28;;;17.20;99.90;;;;;;7343541;19;108384;-85
2022/06/29 03:38:02;;;;;;;12.52;4.78;;;17.20;99.90;;;;;;7345834;19;110491;-85
2022/06/29 03:40:30;;;;;;;8.93;4.70;;;17.20;99.90;;;;;;7344989;19;107399;-85
2022/06/29 03:42:57;;;;;;;5.85;4.05;;;17.10;99.90;;;;;;7350589;19;108222;-86
2022/06/29 03:45:24;;;;;;;7.75;4.30;;;17.10;99.90;;;;;;7345060;19;108132;-85
2022/06/29 03:47:51;;;;;;;8.95;4.78;;;17.10;99.90;;;;;;7344825;19;107512;-85
2022/06/29 03:50:18;;;;;;;4.70;3.92;;;17.10;99.90;;;;;;7345049;19;109061;-85
2022/06/29 03:52:46;;;;;;;8.65;4.40;;;17.10;99.90;;;;;;7344798;19;108533;-85
2022/06/29 03:55:13;;;;;;;8.07;4.63;;;17.00;99.90;;;;;;7347520;19;108522;-84
2022/06/29 03:57:40;;;;;;;7.68;4.32;;;17.00;99.90;;;;;;7345009;19;109289;-85
2022/06/29 04:00:09;;;;;;;7.35;4.43;;;17.00;99.90;;;;;;7346112;19;108487;-85
2022/06/29 04:02:37;;;;;;;16.98;4.53;;;17.00;99.90;;;;;;7345475;19;108484;-85
2022/06/29 04:05:04;;;;;;;13.60;4.68;;;17.00;99.90;;;;;;7348947;19;108937;-85
2022/06/29 04:07:32;;;;;;;9.48;4.60;;;17.00;99.90;;;;;;7344246;19;108133;-85
2022/06/29 04:10:02;;;;;;;11.05;4.60;;;17.00;99.90;;;;;;7345305;19;109099;-85
2022/06/29 04:12:30;;;;;;;7.90;4.05;;;17.00;99.90;;;;;;7345021;19;107872;-86
2022/06/29 04:14:58;;;;;;;7.10;3.95;;;17.00;99.90;;;;;;7346071;19;108529;-85
2022/06/29 04:17:25;;;;;;;7.32;4.25;;;17.10;99.90;;;;;;7345814;19;109109;-85
2022/06/29 04:19:52;;;;;;;5.57;3.90;;;17.10;99.90;;;;;;7345894;19;111198;-85
2022/06/29 04:22:20;;;;;;;7.55;4.20;;;17.20;99.90;;;;;;7345763;19;107214;-85
2022/06/29 04:24:47;;;;;;;13.50;4.22;;;17.20;99.90;;;;;;7344280;19;109128;-85
2022/06/29 04:27:14;;;;;;;5.50;3.80;;;17.20;99.90;;;;;;7352208;19;108404;-85
2022/06/29 04:29:42;;;;;;;6.03;3.97;;;17.30;99.90;;;;;;7344920;19;109252;-85
2022/06/29 04:32:10;;;;;;;6.78;3.85;;;17.30;99.90;;;;;;7343802;19;108361;-84
2022/06/29 04:34:40;;;;;;;8.88;3.78;;;17.40;99.90;;;;;;7344055;19;108242;-85
2022/06/29 04:37:07;;;;;;;8.57;4.10;;;17.50;99.90;;;;;;7343238;19;108691;-85
2022/06/29 04:39:35;;;;;;;7.65;3.97;;;17.60;99.90;;;;;;7344002;19;108261;-85
2022/06/29 04:42:02;;;;;;;6.68;4.10;;;17.60;99.90;;;;;;7342796;19;108553;-85
2022/06/29 04:44:29;;;;;;;13.98;4.25;;;17.60;99.90;;;;;;7341618;19;108910;-85
2022/06/29 04:46:56;;;;;;;7.72;3.90;;;17.60;99.90;;;;;;7341843;19;108649;-85
2022/06/29 04:49:24;;;;;;;8.25;3.60;;;17.70;99.90;;;;;;7345713;19;108378;-84
2022/06/29 04:51:51;;;;;;;11.93;3.80;;;17.70;99.90;;;;;;7342647;19;109731;-85
2022/06/29 04:54:18;;;;;;;15.10;3.53;;;17.70;99.90;;;;;;7342623;19;107419;-85
2022/06/29 04:56:45;;;;;;;7.88;3.72;;;17.80;99.90;;;;;;7342724;19;109207;-85
2022/06/29 04:59:13;;;;;;;13.52;3.60;;;17.90;99.90;;;;;;7342651;19;108471;-84
2022/06/29 05:01:41;;;;;;;11.98;2.95;;;17.90;99.90;;;;;;7342675;19;108171;-85
2022/06/29 05:04:08;;;;;;;6.28;2.78;;;18.00;99.90;;;;;;7341102;19;109084;-84
2022/06/29 05:06:35;;;;;;;10.68;3.17;;;18.10;99.90;;;;;;7343747;19;107983;-85
2022/06/29 05:09:02;;;;;;;6.85;2.88;;;18.10;99.90;;;;;;7344271;19;110198;-85
2022/06/29 05:11:29;;;;;;;8.35;3.08;;;18.20;99.90;;;;;;7349067;19;111394;-85
2022/06/29 05:13:57;;;;;;;4.45;3.10;;;18.20;99.90;;;;;;7340595;19;108272;-85
2022/06/29 05:16:24;;;;;;;4.45;2.92;;;18.20;99.90;;;;;;7343444;19;108887;-85
2022/06/29 05:18:51;;;;;;;4.22;2.50;;;18.40;99.90;;;;;;7344359;19;108223;-85
2022/06/29 05:21:19;;;;;;;9.15;3.20;;;18.40;99.90;;;;;;7342533;19;108286;-84
2022/06/29 05:23:47;;;;;;;8.65;2.90;;;18.50;99.90;;;;;;7339495;19;109026;-85
2022/06/29 05:26:14;;;;;;;5.43;2.92;;;18.60;99.90;;;;;;7339980;19;107716;-86
2022/06/29 05:28:41;;;;;;;6.00;3.17;;;18.70;99.90;;;;;;7341192;19;109259;-85
2022/06/29 05:31:09;;;;;;;5.63;2.90;;;18.80;99.90;;;;;;7347651;19;112477;-86
2022/06/29 05:33:36;;;;;;;5.88;2.88;;;18.90;99.90;;;;;;7342389;19;108623;-86
2022/06/29 05:36:08;;;;;;;5.05;2.97;;;19.00;99.90;;;;;;7341208;19;111977;-86
2022/06/29 05:38:36;;;;;;;4.57;2.53;;;19.00;99.90;;;;;;7342033;19;111214;-86
2022/06/29 05:41:04;;;;;;;5.07;2.65;;;19.10;99.90;;;;;;7343237;19;108252;-86
2022/06/29 05:43:31;;;;;;;4.15;2.53;;;19.20;99.90;;;;;;7343035;19;109441;-86
2022/06/29 05:45:59;;;;;;;8.82;3.08;;;19.30;99.90;;;;;;7342016;19;108483;-87
2022/06/29 05:48:27;;;;;;;4.15;2.50;;;19.30;99.90;;;;;;7342205;19;108109;-85
2022/06/29 05:50:54;;;;;;;6.75;2.60;;;19.40;99.90;;;;;;7340590;19;109046;-84
2022/06/29 05:53:22;;;;;;;5.80;2.33;;;19.50;99.90;;;;;;7345953;19;111031;-85
2022/06/29 05:55:49;;;;;;;7.47;2.30;;;19.60;99.90;;;;;;7344677;19;112419;-86
2022/06/29 05:58:19;;;;;;;6.50;2.17;;;19.60;99.90;;;;;;7340129;19;108207;-88
2022/06/29 06:00:53;;;;;;;6.25;2.30;;;19.70;99.90;;;;;;7341606;19;108200;-88
2022/06/29 06:03:21;;;;;;;4.07;2.35;;;19.80;99.90;;;;;;7342286;19;109218;-87
2022/06/29 06:05:48;;;;;;;6.10;2.08;;;19.90;99.90;;;;;;7340228;19;108168;-87
2022/06/29 06:08:16;;;;;;;3.55;2.00;;;20.00;99.90;;;;;;7339761;19;108258;-88
2022/06/29 06:10:43;;;;;;;5.13;2.20;;;20.10;99.90;;;;;;7343150;19;108484;-87
2022/06/29 06:13:10;;;;;;;4.15;2.30;;;20.20;99.90;;;;;;7341668;19;106919;-88
2022/06/29 06:15:38;;;;;;;4.15;2.03;;;20.30;99.90;;;;;;7345875;19;108137;-88
2022/06/29 06:18:05;;;;;;;7.82;2.40;;;20.50;99.90;;;;;;7341682;19;107350;-88
2022/06/29 06:20:33;;;;;;;3.35;1.88;;;20.50;99.90;;;;;;7340636;19;107851;-87
2022/06/29 06:23:00;;;;;;;5.20;1.70;;;20.70;99.90;;;;;;7341046;19;112052;-88
2022/06/29 06:25:30;;;;;;;4.35;1.98;;;20.80;99.90;;;;;;7341629;19;107761;-87
2022/06/29 06:28:05;;;;;;;5.47;1.98;;;20.90;99.90;;;;;;7340444;19;111353;-88
2022/06/29 06:30:32;;;;;;;6.57;1.80;;;21.00;99.90;;;;;;7338590;19;108952;-86
2022/06/29 06:33:00;;;;;;;3.05;1.70;;;21.10;99.90;;;;;;7340207;19;110799;-87
2022/06/29 06:35:27;;;;;;;4.25;1.70;;;21.10;99.90;;;;;;7342556;19;109663;-87
2022/06/29 06:37:54;;;;;;;3.63;2.08;;;21.20;99.90;;;;;;7347986;19;108778;-85
2022/06/29 06:43:07;;;;;;;5.30;2.03;;;21.40;99.90;;;;;;7342318;19;112115;-89
2022/06/29 06:45:34;;;;;;;3.40;1.60;;;21.60;99.90;;;;;;7341015;19;108056;-88
2022/06/29 06:48:01;;;;;;;3.65;1.60;;;21.70;99.90;;;;;;7339912;19;107820;-87
2022/06/29 06:50:28;;;;;;;3.55;1.80;;;21.80;99.90;;;;;;7338862;19;108976;-81
2022/06/29 06:52:55;;;;;;;5.63;1.80;;;21.90;99.90;;;;;;7341803;19;107927;-85
2022/06/29 06:55:25;;;;;;;3.22;1.60;;;22.00;99.90;;;;;;7340752;19;107774;-84
2022/06/29 06:57:52;;;;;;;5.43;1.85;;;22.10;99.90;;;;;;7336762;19;110659;-84
2022/06/29 07:00:19;;;;;;;4.63;2.58;;;22.20;99.90;;;;;;7346000;19;109124;-84
2022/06/29 07:02:46;;;;;;;6.95;1.70;;;22.30;99.90;;;;;;7340797;19;108273;-84
2022/06/29 07:05:13;;;;;;;5.30;1.77;;;22.40;99.90;;;;;;7341140;19;107611;-83
2022/06/29 07:07:40;;;;;;;4.15;2.00;;;22.50;99.90;;;;;;7339818;19;108208;-84
2022/06/29 07:10:08;;;;;;;4.72;1.90;;;22.60;99.90;;;;;;7342231;19;108314;-81
2022/06/29 07:12:35;;;;;;;7.15;1.92;;;22.60;99.90;;;;;;7342169;19;107330;-84
2022/06/29 07:15:03;;;;;;;3.90;1.70;;;22.70;99.90;;;;;;7342417;19;109588;-83
2022/06/29 07:17:30;;;;;;;6.18;1.95;;;22.80;99.90;;;;;;7340896;19;110645;-84
2022/06/29 07:19:57;;;;;;;4.57;1.80;;;22.80;99.90;;;;;;7339194;19;108014;-84
2022/06/29 07:22:24;;;;;;;3.05;1.80;;;22.90;99.90;;;;;;7345781;19;108209;-84
2022/06/29 07:24:51;;;;;;;3.70;2.08;;;23.00;99.90;;;;;;7339929;19;110189;-83
2022/06/29 07:27:19;;;;;;;5.15;2.00;;;23.10;99.90;;;;;;7336515;19;108502;-81
2022/06/29 07:29:46;;;;;;;4.15;1.58;;;23.10;99.90;;;;;;7339354;19;108937;-84
2022/06/29 07:32:13;;;;;;;8.07;1.90;;;23.20;99.90;;;;;;7340653;19;108215;-83
2022/06/29 07:34:40;;;;;;;5.80;2.20;;;23.30;99.90;;;;;;7340109;19;108323;-84
2022/06/29 07:37:07;;;;;;;2.72;1.70;;;23.40;99.90;;;;;;7339453;19;109962;-81
2022/06/29 07:39:34;;;;;;;1.98;1.50;;;23.50;99.90;;;;;;7339526;19;108102;-81
2022/06/29 07:42:21;;;;;;;3.30;1.50;;;23.60;99.90;;;;;;7345583;19;110119;-85
2022/06/29 07:44:48;;;;;;;4.95;1.70;;;23.60;99.90;;;;;;7339013;19;107574;-82
2022/06/29 07:47:15;;;;;;;2.40;1.67;;;23.70;99.90;;;;;;7338152;19;108891;-83
2022/06/29 07:49:42;;;;;;;4.32;1.90;;;23.80;99.90;;;;;;7337675;19;108956;-83
2022/06/29 07:52:09;;;;;;;5.78;1.73;;;23.80;99.90;;;;;;7340596;19;110654;-82
2022/06/29 07:54:36;;;;;;;3.58;1.60;;;23.90;99.90;;;;;;7339492;19;108236;-81
2022/06/29 07:57:04;;;;;;;3.60;1.60;;;24.00;99.90;;;;;;7340442;19;108958;-81
2022/06/29 07:59:46;;;;;;;5.10;1.73;;;24.10;99.90;;;;;;7339781;19;107217;-81
2022/06/29 08:02:15;;;;;;;2.70;1.40;;;24.20;99.90;;;;;;7339696;19;108099;-81
2022/06/29 08:04:42;;;;;;;4.72;1.60;;;24.20;99.90;;;;;;7344512;19;108121;-82
2022/06/29 08:07:29;;;;;;;3.92;1.40;;;24.30;99.90;;;;;;7335313;19;107865;-82
2022/06/29 08:09:56;;;;;;;3.95;1.83;;;24.40;99.90;;;;;;7339697;19;109884;-82
2022/06/29 08:12:23;;;;;;;3.17;1.65;;;24.40;99.90;;;;;;7338842;19;108579;-81
2022/06/29 08:14:50;;;;;;;5.43;1.60;;;24.50;99.90;;;;;;7337807;19;108913;-81
2022/06/29 08:17:17;;;;;;;5.35;1.33;;;24.60;99.90;;;;;;7338367;19;108357;-82
2022/06/29 08:19:45;;;;;;;4.55;1.50;;;24.70;99.90;;;;;;7339887;19;107410;-81
2022/06/29 08:22:12;;;;;;;5.50;1.70;;;24.80;99.90;;;;;;7343961;19;108217;-82
2022/06/29 08:24:39;;;;;;;3.58;1.30;;;25.00;99.80;;;;;;7344803;19;112959;-84
2022/06/29 08:27:06;;;;;;;4.30;1.35;;;25.00;99.50;;;;;;7349410;19;107680;-81
2022/06/29 08:29:54;;;;;;;3.22;1.27;;;25.00;99.40;;;;;;7343851;19;108937;-81
2022/06/29 08:32:21;;;;;;;4.70;1.38;;;25.10;99.10;;;;;;7345446;19;108253;-82
2022/06/29 08:34:48;;;;;;;2.20;1.33;;;25.20;99.60;;;;;;7344150;19;107862;-81
2022/06/29 08:37:15;;;;;;;5.57;1.23;;;25.40;99.40;;;;;;7344536;19;107956;-82
2022/06/29 08:39:43;;;;;;;3.58;1.20;;;25.50;99.30;;;;;;7344680;19;108294;-82
2022/06/29 08:42:11;;;;;;;4.85;1.10;;;25.60;99.40;;;;;;7346574;19;107697;-81
2022/06/29 08:44:39;;;;;;;6.28;1.20;;;25.70;99.20;;;;;;7346047;19;108967;-81
2022/06/29 08:47:11;;;;;;;3.50;1.20;;;25.70;98.80;;;;;;7343861;19;108093;-82
2022/06/29 08:49:38;;;;;;;6.82;1.30;;;25.80;98.70;;;;;;7348440;19;107030;-81
2022/06/29 08:52:06;;;;;;;3.05;1.15;;;25.80;98.70;;;;;;7345511;19;107923;-82
2022/06/29 08:54:40;;;;;;;3.53;1.20;;;25.90;98.50;;;;;;7344509;19;108480;-82
2022/06/29 08:57:08;;;;;;;3.08;1.10;;;25.90;98.30;;;;;;7343090;19;109823;-82
2022/06/29 08:59:36;;;;;;;3.33;1.17;;;26.00;98.00;;;;;;7344169;19;107429;-84
2022/06/29 09:02:23;;;;;;;4.53;1.10;;;26.00;98.00;;;;;;7343414;19;109092;-83
2022/06/29 09:04:50;;;;;;;3.88;1.17;;;26.10;98.60;;;;;;7343783;19;109002;-82
2022/06/29 09:07:18;;;;;;;2.60;0.90;;;26.20;97.80;;;;;;7342883;19;110569;-82
2022/06/29 09:10:03;;;;;;;5.03;0.85;;;26.30;97.90;;;;;;7344771;19;108165;-82
2022/06/29 09:12:31;;;;;;;1.50;0.70;;;26.40;97.30;;;;;;7348048;19;108034;-82
2022/06/29 09:15:00;;;;;;;2.67;1.08;;;26.40;97.70;;;;;;7343255;19;108316;-82
2022/06/29 09:17:31;;;;;;;2.83;0.90;;;26.50;97.30;;;;;;7342325;19;109186;-83
2022/06/29 09:19:58;;;;;;;4.00;0.70;;;26.70;97.30;;;;;;7342036;19;107995;-81
2022/06/29 09:22:52;;;;;;;;;;;26.70;97.30;;;;;;7344577;19;109673;-82
2022/06/29 09:25:23;;;;;;;3.05;0.90;;;26.80;96.90;;;;;;7347261;19;108984;-83
2022/06/29 09:27:50;;;;;;;1.58;0.77;;;26.80;96.60;;;;;;7342255;19;107616;-84
2022/06/29 09:30:35;;;;;;;6.43;0.93;;;26.90;95.00;;;;;;7343918;19;107176;-83
2022/06/29 09:33:07;;;;;;;1.90;0.82;;;26.80;95.10;;;;;;7341030;19;108995;-82
2022/06/29 09:35:37;;;;;;;1.55;0.70;;;26.90;95.50;;;;;;7347039;19;107438;-83
2022/06/29 09:38:25;;;;;;;2.83;0.98;;;27.00;95.30;;;;;;7341313;19;109083;-83
2022/06/29 09:40:58;;;;;;;4.45;0.80;;;27.10;94.50;;;;;;7342556;19;110270;-83
2022/06/29 09:43:27;;;;;;;2.22;0.70;;;27.20;94.50;;;;;;7340200;19;108141;-82
2022/06/29 09:45:54;;;;;;;6.75;0.93;;;27.20;93.30;;;;;;7341636;19;109293;-82
2022/06/29 09:48:24;;;;;;;1.70;0.80;;;27.30;94.00;;;;;;7338210;19;108040;-84
2022/06/29 09:50:52;;;;;;;4.40;0.90;;;27.40;93.70;;;;;;7342077;19;107819;-83
2022/06/29 09:53:25;;;;;;;3.08;0.60;;;27.50;93.30;;;;;;7341599;19;108262;-85
2022/06/29 09:55:56;;;;;;;6.63;0.70;;;27.50;92.30;;;;;;7345477;19;108319;-84
2022/06/29 09:58:33;;;;;;;2.33;0.70;;;27.60;92.00;;;;;;7340845;19;108199;-84
2022/06/29 10:03:49;;;;;;;4.10;0.70;;;27.70;92.10;;;;;;7343734;19;107885;-84
2022/06/29 10:06:17;;;;;;;3.85;0.85;;;27.80;92.50;;;;;;7341749;19;109209;-85
2022/06/29 10:08:45;;;;;;;5.88;0.80;;;27.90;91.70;;;;;;7341548;19;108377;-83
2022/06/29 10:14:36;;;;;;;2.50;0.60;;;28.00;90.70;;;;;;7339639;19;109188;-84
2022/06/29 10:17:25;;;;;;;1.88;0.70;;;28.00;90.50;;;;;;7339382;19;107940;-84
2022/06/29 10:20:26;;;;;;;1.38;0.65;;;27.90;89.50;;;;;;7346059;19;107736;-83
2022/06/29 10:22:53;;;;;;;4.95;0.85;;;27.90;89.60;;;;;;7340540;19;107952;-84
2022/06/29 10:25:27;;;;;;;2.95;0.70;;;27.90;90.00;;;;;;7341351;19;108287;-85
2022/06/29 10:28:11;;;;;;;3.60;0.80;;;28.00;90.10;;;;;;7338514;19;109012;-83
2022/06/29 10:30:39;;;;;;;3.85;0.63;;;28.20;89.60;;;;;;7340457;19;108275;-83
2022/06/29 10:33:33;;;;;;;5.55;0.85;;;28.20;89.40;;;;;;7338861;19;109353;-84
2022/06/29 10:36:06;;;;;;;4.43;0.88;;;28.40;89.10;;;;;;7339969;19;108668;-84
2022/06/29 10:38:54;;;;;;;7.05;0.90;;;28.30;85.70;;;;;;7341443;19;107970;-83
2022/06/29 10:44:07;;;;;;;6.43;0.70;;;28.10;89.00;;;;;;7345400;19;108157;-83
2022/06/29 10:46:55;;;;;;;2.95;0.70;;;28.20;85.70;;;;;;7340270;19;108285;-84
2022/06/29 10:49:24;;;;;;;3.75;0.60;;;28.40;87.40;;;;;;7337561;19;109034;-83
2022/06/29 10:51:51;;;;;;;2.63;0.60;;;28.50;85.90;;;;;;7347101;19;108119;-84
2022/06/29 10:54:30;;;;;;;4.18;0.70;;;28.70;84.70;;;;;;7343559;19;107370;-83
2022/06/29 10:56:57;;;;;;;2.05;0.70;;;28.70;83.60;;;;;;7341453;19;107805;-84
2022/06/29 10:59:35;;;;;;;1.92;0.60;;;28.80;83.60;;;;;;7339727;19;108305;-84
2022/06/29 11:02:13;;;;;;;2.88;0.60;;;28.90;83.20;;;;;;7340089;19;108021;-84
2022/06/29 11:04:44;;;;;;;1.70;0.60;;;29.00;80.70;;;;;;7342031;19;112074;-83
2022/06/29 11:12:53;;;;;;;6.22;0.90;;;28.90;81.30;;;;;;7339187;19;107358;-83
2022/06/29 11:15:41;;;;;;;2.72;0.80;;;28.90;81.10;;;;;;7341366;19;108508;-83
2022/06/29 11:18:13;;;;;;;7.72;0.80;;;29.00;82.10;;;;;;7339654;19;108987;-84
2022/06/29 11:20:45;;;;;;;4.03;0.60;;;29.10;82.30;;;;;;7340324;19;108330;-82
2022/06/29 11:23:18;;;;;;;2.10;0.70;;;29.30;82.70;;;;;;7341252;19;107381;-82
2022/06/29 11:25:47;;;;;;;3.58;0.75;;;29.40;83.10;;;;;;7341050;19;109240;-83
2022/06/29 11:28:19;;;;;;;9.05;0.85;;;29.50;80.70;;;;;;7338144;19;109603;-83
2022/06/29 11:31:08;;;;;;;3.90;0.70;;;29.60;80.00;;;;;;7346625;19;108558;-83
2022/06/29 11:33:40;;;;;;;7.53;0.98;;;29.50;79.20;;;;;;7339338;19;107667;-83
2022/06/29 11:36:32;;;;;;;4.05;0.80;;;29.50;78.50;;;;;;7340636;19;107395;-83
2022/06/29 11:39:06;;;;;;;2.35;0.80;;;29.60;80.20;;;;;;7337557;19;108300;-84
2022/06/29 11:44:27;;;;;;;3.50;0.90;;;29.60;80.40;;;;;;7339333;19;108027;-83
2022/06/29 11:46:55;;;;;;;4.25;0.70;;;29.70;80.40;;;;;;7337125;19;109959;-84
2022/06/29 11:49:39;;;;;;;2.15;0.80;;;29.60;81.20;;;;;;7338134;19;107214;-84
2022/06/29 11:52:13;;;;;;;4.53;0.80;;;29.70;79.40;;;;;;7341582;19;108844;-84
2022/06/29 11:55:00;;;;;;;2.17;0.70;;;29.70;79.50;;;;;;7340338;19;108030;-83
2022/06/29 11:57:28;;;;;;;3.30;0.90;;;29.70;78.30;;;;;;7345877;19;110580;-84
2022/06/29 12:00:07;;;;;;;3.55;0.95;;;29.60;78.20;;;;;;7344409;19;108867;-84
2022/06/29 12:02:34;;;;;;;1.70;0.88;;;29.70;79.50;;;;;;7346041;19;108293;-84
2022/06/29 12:05:03;;;;;;;1.48;0.85;;;29.80;77.40;;;;;;7344029;19;108524;-84
2022/06/29 12:07:31;;;;;;;6.93;0.90;;;30.00;78.90;;;;;;7345121;19;108398;-84
2022/06/29 12:09:59;;;;;;;4.70;0.70;;;29.90;77.70;;;;;;7346719;19;107105;-83
2022/06/29 12:12:26;;;;;;;4.35;0.80;;;29.80;75.00;;;;;;7341765;19;107679;-85
2022/06/29 12:14:53;;;;;;;1.83;0.73;;;29.70;75.30;;;;;;7350719;19;109006;-84
2022/06/29 12:17:20;;;;;;;5.28;1.10;;;29.70;75.70;;;;;;7347179;19;108270;-84
2022/06/29 12:19:47;;;;;;;2.42;0.90;;;29.80;75.10;;;;;;7346338;19;108858;-84
2022/06/29 12:22:15;;;;;;;5.00;0.80;;;29.90;76.50;;;;;;7345592;19;108030;-84
2022/06/29 12:24:42;;;;;;;8.40;1.00;;;30.10;74.80;;;;;;7345095;19;108614;-84
2022/06/29 12:27:10;;;;;;;8.43;0.80;;;30.30;74.40;;;;;;7344240;19;109119;-83
2022/06/29 12:29:37;;;;;;;6.53;0.75;;;30.40;73.20;;;;;;7344726;19;107889;-87
2022/06/29 12:32:04;;;;;;;4.97;1.00;;;30.40;74.00;;;;;;7335132;19;108773;-87
2022/06/29 12:34:31;;;;;;;3.97;0.95;;;30.50;73.00;;;;;;7342328;19;109644;-86
2022/06/29 12:37:00;;;;;;;3.33;1.00;;;30.80;74.40;;;;;;7347803;19;108269;-87
2022/06/29 12:39:27;;;;;;;3.75;1.10;;;31.00;73.90;;;;;;7345584;19;108798;-87
2022/06/29 12:41:54;;;;;;;3.97;1.30;;;31.30;73.00;;;;;;7345738;19;107519;-88
2022/06/29 12:44:22;;;;;;;2.50;1.00;;;31.40;70.70;;;;;;7346466;19;107744;-87
2022/06/29 12:46:49;;;;;;;4.07;1.05;;;31.50;71.50;;;;;;7345253;19;107898;-87
2022/06/29 12:49:17;;;;;;;2.83;1.10;;;31.40;70.00;;;;;;7343610;19;107131;-86
2022/06/29 12:51:45;;;;;;;2.88;1.10;;;31.40;71.00;;;;;;7347622;19;107450;-86
2022/06/29 12:54:12;;;;;;;2.40;1.00;;;31.40;70.20;;;;;;7351362;19;108944;-87
2022/06/29 12:56:39;;;;;;;5.95;1.13;;;31.50;69.00;;;;;;7344998;19;107854;-86
2022/06/29 12:59:06;;;;;;;7.03;1.10;;;31.50;66.50;;;;;;7349357;19;108281;-87
2022/06/29 13:01:35;;;;;;;3.55;1.00;;;31.30;69.60;;;;;;7344672;19;107929;-87
2022/06/29 13:04:03;;;;;;;4.90;1.02;;;31.30;71.20;;;;;;7341571;19;108177;-86
2022/06/29 13:06:31;;;;;;;1.45;0.90;;;31.50;73.30;;;;;;7344293;19;109389;-86
2022/06/29 13:08:58;;;;;;;2.17;0.93;;;31.70;71.20;;;;;;7340084;19;108827;-87
2022/06/29 13:11:25;;;;;;;5.75;1.00;;;31.90;70.40;;;;;;7345098;19;107466;-88